createdAt,value
2018-11-22T12:18:07.962Z,12.93
2018-11-22T12:20:37.730Z,12.96
2018-11-22T12:23:06.946Z,14.21
2018-11-22T12:25:36.283Z,12.77
2018-11-22T12:28:05.877Z,12.65
2018-11-22T12:30:35.672Z,10.37
2018-11-22T12:33:23.033Z,9.13
2018-11-22T12:36:06.169Z,8.66
2018-11-22T12:38:44.754Z,9.88
2018-11-22T12:41:14.295Z,10.34
2018-11-22T12:43:44.059Z,8.95
2018-11-22T12:46:13.458Z,9.40
2018-11-22T12:48:43.325Z,9.91
2018-11-22T12:51:13.947Z,10.02
2018-11-22T12:53:44.507Z,10.56
2018-11-22T12:56:13.961Z,10.84
2018-11-22T12:58:43.176Z,11.42
2018-11-22T13:01:12.430Z,12.20
2018-11-22T13:03:41.938Z,12.68
2018-11-22T13:06:11.382Z,11.26
2018-11-22T13:08:40.774Z,10.12
2018-11-22T13:11:10.008Z,10.46
2018-11-22T13:13:39.224Z,9.34
2018-11-22T13:16:08.844Z,9.09
2018-11-22T13:18:38.485Z,8.81
2018-11-22T13:21:08.019Z,7.98
2018-11-22T13:23:37.236Z,7.54
2018-11-22T13:26:07.482Z,7.39
2018-11-22T13:28:36.768Z,6.95
2018-11-22T13:31:06.492Z,6.74
2018-11-22T13:33:35.760Z,6.94
2018-11-22T13:36:05.178Z,6.94
2018-11-22T13:38:34.402Z,6.73
2018-11-22T13:41:04.485Z,7.24
2018-11-22T13:43:34.154Z,7.12
2018-11-22T13:46:03.546Z,6.97
2018-11-22T13:48:32.674Z,7.17
2018-11-22T13:51:02.050Z,6.82
2018-11-22T13:53:31.238Z,7.26
2018-11-22T13:56:00.486Z,7.52
2018-11-22T13:58:29.954Z,7.37
2018-11-22T14:00:59.198Z,6.99
2018-11-22T14:03:28.350Z,6.97
2018-11-22T14:05:57.602Z,7.19
2018-11-22T14:08:27.174Z,7.22
2018-11-22T14:10:58.593Z,7.14
2018-11-22T14:13:26.214Z,7.41
2018-11-22T14:15:55.361Z,7.62
2018-11-22T14:18:24.537Z,7.25
2018-11-22T14:20:54.109Z,6.93
2018-11-22T14:23:23.408Z,6.82
2018-11-22T14:25:52.601Z,6.61
2018-11-22T14:28:21.819Z,6.68
2018-11-22T14:30:50.963Z,6.69
2018-11-22T14:33:20.186Z,6.67
2018-11-22T14:35:49.559Z,6.73
2018-11-22T14:38:18.802Z,6.93
2018-11-22T14:40:48.023Z,6.40
2018-11-22T14:43:17.642Z,6.66
2018-11-22T14:45:47.780Z,6.41
2018-11-22T14:48:16.969Z,6.45
2018-11-22T14:51:01.044Z,6.15
2018-11-22T14:53:31.309Z,6.11
2018-11-22T14:56:01.212Z,5.90
2018-11-22T14:58:30.934Z,5.86
2018-11-22T15:01:00.324Z,5.96
2018-11-22T15:03:30.030Z,6.06
2018-11-22T15:05:59.273Z,5.92
2018-11-22T15:08:28.446Z,5.90
2018-11-22T15:10:57.782Z,5.89
2018-11-22T15:13:26.957Z,5.88
2018-11-22T15:15:56.210Z,5.72
2018-11-22T15:18:25.874Z,5.74
2018-11-22T15:21:00.903Z,5.87
2018-11-22T15:23:24.657Z,5.98
2018-11-22T15:25:54.302Z,5.91
2018-11-22T15:28:23.519Z,5.80
2018-11-22T15:30:53.169Z,5.97
2018-11-22T15:33:22.298Z,5.92
2018-11-22T15:35:51.505Z,5.85
2018-11-22T15:38:20.710Z,5.84
2018-11-22T15:40:50.864Z,5.65
2018-11-22T15:43:21.091Z,5.53
2018-11-22T15:45:50.269Z,5.47
2018-11-22T15:48:19.559Z,5.32
2018-11-22T15:50:49.498Z,5.29
2018-11-22T15:53:18.018Z,5.06
2018-11-22T15:55:47.201Z,4.97
2018-11-22T15:58:16.515Z,4.95
2018-11-22T16:00:45.697Z,4.83
2018-11-22T16:03:14.850Z,4.66
2018-11-22T16:05:44.403Z,4.52
2018-11-22T16:08:13.614Z,4.40
2018-11-22T16:10:42.834Z,4.36
2018-11-22T16:13:13.036Z,4.24
2018-11-22T16:15:47.706Z,4.13
2018-11-22T16:18:17.023Z,3.96
2018-11-22T16:20:46.747Z,3.81
2018-11-22T16:23:15.965Z,3.72
2018-11-22T16:25:45.186Z,3.80
2018-11-22T16:28:14.366Z,3.70
2018-11-22T16:30:44.037Z,3.65
2018-11-22T16:33:13.197Z,3.74
2018-11-22T16:35:42.438Z,3.57
2018-11-22T16:38:12.978Z,3.49
2018-11-22T16:40:43.142Z,3.47
2018-11-22T16:43:11.982Z,3.38
2018-11-22T16:45:41.294Z,3.38
2018-11-22T16:48:12.845Z,3.37
2018-11-22T16:50:43.456Z,3.37
2018-11-22T16:53:12.614Z,3.33
2018-11-22T16:55:41.798Z,3.27
2018-11-22T16:58:11.036Z,3.19
2018-11-22T17:00:41.318Z,3.18
2018-11-22T17:03:13.282Z,3.04
2018-11-22T17:05:43.314Z,2.74
2018-11-22T17:08:12.565Z,2.83
2018-11-22T17:10:42.429Z,2.64
2018-11-22T17:13:11.618Z,2.38
2018-11-22T17:15:42.007Z,2.48
2018-11-22T17:18:12.478Z,2.63
2018-11-22T17:20:41.694Z,2.73
2018-11-22T17:23:10.926Z,2.72
2018-11-22T17:25:40.634Z,2.74
2018-11-22T17:28:10.313Z,2.78
2018-11-22T17:30:41.942Z,2.73
2018-11-22T17:33:11.221Z,2.64
2018-11-22T17:35:41.400Z,2.62
2018-11-22T17:38:11.461Z,2.62
2018-11-22T17:40:42.271Z,2.56
2018-11-22T17:43:11.389Z,2.46
2018-11-22T17:45:42.252Z,2.48
2018-11-22T17:48:11.676Z,2.35
2018-11-22T17:50:42.490Z,2.07
2018-11-22T17:53:12.717Z,2.08
2018-11-22T17:55:42.490Z,2.17
2018-11-22T17:58:11.895Z,2.15
2018-11-22T18:00:43.810Z,2.23
2018-11-22T18:03:13.154Z,2.06
2018-11-22T18:05:42.286Z,2.01
2018-11-22T18:08:11.354Z,1.78
2018-11-22T18:10:41.558Z,1.80
2018-11-22T18:13:10.646Z,1.89
2018-11-22T18:15:44.957Z,1.92
2018-11-22T18:18:14.374Z,1.90
2018-11-22T18:20:43.490Z,1.87
2018-11-22T18:23:13.210Z,1.83
2018-11-22T18:25:42.322Z,1.85
2018-11-22T18:28:11.413Z,1.82
2018-11-22T18:30:40.634Z,1.79
2018-11-22T18:33:10.110Z,1.72
2018-11-22T18:35:39.262Z,1.62
2018-11-22T18:38:08.366Z,1.59
2018-11-22T18:40:38.883Z,1.51
2018-11-22T18:43:08.002Z,1.34
2018-11-22T18:45:40.556Z,1.37
2018-11-22T18:48:11.718Z,1.40
2018-11-22T18:50:41.296Z,1.38
2018-11-22T18:53:11.384Z,1.37
2018-11-22T18:55:39.781Z,1.40
2018-11-22T18:58:08.944Z,1.33
2018-11-22T19:00:39.869Z,1.31
2018-11-22T19:03:12.453Z,1.25
2018-11-22T19:05:41.621Z,1.19
2018-11-22T19:08:10.662Z,1.06
2018-11-22T19:10:40.932Z,0.98
2018-11-22T19:13:11.405Z,0.96
2018-11-22T19:15:42.003Z,1.01
2018-11-22T19:18:12.286Z,0.94
2018-11-22T19:20:43.258Z,0.87
2018-11-22T19:23:13.345Z,0.85
2018-11-22T19:25:42.441Z,0.90
2018-11-22T19:28:12.230Z,0.81
2018-11-22T19:30:42.982Z,0.79
2018-11-22T19:33:13.643Z,0.71
2018-11-22T19:35:44.790Z,0.72
2018-11-22T19:38:13.949Z,0.73
2018-11-22T19:40:43.591Z,0.69
2018-11-22T19:43:13.026Z,0.68
2018-11-22T19:45:43.839Z,0.71
2018-11-22T19:48:12.941Z,0.70
2018-11-22T19:50:42.670Z,0.77
2018-11-22T19:53:13.122Z,0.79
2018-11-22T19:55:42.271Z,0.79
2018-11-22T19:58:12.798Z,0.88
2018-11-22T20:00:41.921Z,0.88
2018-11-22T20:03:11.293Z,0.66
2018-11-22T20:05:41.634Z,0.79
2018-11-22T20:08:12.457Z,0.82
2018-11-22T20:10:42.869Z,0.78
2018-11-22T20:13:12.042Z,0.75
2018-11-22T20:15:41.242Z,0.79
2018-11-22T20:18:11.032Z,0.81
2018-11-22T20:20:40.118Z,0.75
2018-11-22T20:23:09.277Z,0.79
2018-11-22T20:25:38.333Z,0.77
2018-11-22T20:28:07.448Z,0.72
2018-11-22T20:30:38.742Z,0.72
2018-11-22T20:33:07.866Z,0.78
2018-11-22T20:35:36.933Z,0.76
2018-11-22T20:38:06.813Z,0.77
2018-11-22T20:40:35.923Z,0.74
2018-11-22T20:43:06.086Z,0.64
2018-11-22T20:45:40.801Z,0.67
2018-11-22T20:48:06.549Z,0.71
2018-11-22T20:50:36.632Z,0.69
2018-11-22T20:53:06.890Z,0.66
2018-11-22T20:55:37.682Z,0.65
2018-11-22T20:58:07.257Z,0.70
2018-11-22T21:00:37.989Z,0.76
2018-11-22T21:03:07.449Z,0.72
2018-11-22T21:05:37.590Z,0.37
2018-11-22T21:08:06.735Z,0.33
2018-11-22T21:10:36.125Z,0.39
2018-11-22T21:13:05.526Z,0.42
2018-11-22T21:15:35.393Z,0.43
2018-11-22T21:18:06.103Z,0.42
2018-11-22T21:20:36.919Z,0.50
2018-11-22T21:23:06.358Z,0.49
2018-11-22T21:25:35.451Z,0.46
2018-11-22T21:28:05.369Z,0.51
2018-11-22T21:30:35.785Z,0.47
2018-11-22T21:33:05.667Z,0.47
2018-11-22T21:35:35.166Z,0.40
2018-11-22T21:38:05.426Z,0.43
2018-11-22T21:40:34.991Z,0.42
2018-11-22T21:43:04.357Z,0.37
2018-11-22T21:45:34.183Z,0.34
2018-11-22T21:48:03.305Z,0.10
2018-11-22T21:50:32.445Z,0.08
2018-11-22T21:53:01.558Z,0.01
2018-11-22T21:55:31.092Z,0.08
2018-11-22T21:58:01.327Z,0.05
2018-11-22T22:00:35.263Z,0.08
2018-11-22T22:03:06.089Z,0.13
2018-11-22T22:05:35.240Z,0.13
2018-11-22T22:08:04.410Z,0.14
2018-11-22T22:10:33.526Z,0.20
2018-11-22T22:13:02.758Z,0.23
2018-11-22T22:15:33.210Z,0.19
2018-11-22T22:18:02.846Z,0.19
2018-11-22T22:20:33.562Z,0.18
2018-11-22T22:23:03.515Z,0.15
2018-11-22T22:25:32.969Z,0.12
2018-11-22T22:28:02.545Z,0.08
2018-11-22T22:30:33.234Z,-0.01
2018-11-22T22:33:04.111Z,0.01
2018-11-22T22:35:33.274Z,-0.11
2018-11-22T22:38:02.423Z,-0.07
2018-11-22T22:40:32.635Z,-0.09
2018-11-22T22:43:01.802Z,-0.06
2018-11-22T22:45:31.905Z,-0.02
2018-11-22T22:48:01.021Z,-0.11
2018-11-22T22:50:30.813Z,-0.17
2018-11-22T22:53:00.630Z,-0.22
2018-11-22T22:55:30.416Z,-0.32
2018-11-22T22:57:59.877Z,-0.22
2018-11-22T23:00:34.722Z,-0.22
2018-11-22T23:03:05.617Z,-0.23
2018-11-22T23:05:35.054Z,-0.24
2018-11-22T23:08:04.166Z,-0.17
2018-11-22T23:10:33.297Z,-0.20
2018-11-22T23:13:02.648Z,-0.35
2018-11-22T23:15:32.674Z,-0.35
2018-11-22T23:18:01.823Z,-0.40
2018-11-22T23:20:33.554Z,-0.35
2018-11-22T23:23:02.690Z,-0.36
2018-11-22T23:25:31.870Z,-0.46
2018-11-22T23:28:01.498Z,-0.44
2018-11-22T23:30:31.835Z,-0.44
2018-11-22T23:33:05.570Z,-0.47
2018-11-22T23:35:34.698Z,-0.47
2018-11-22T23:38:04.234Z,-0.56
2018-11-22T23:40:34.218Z,-0.56
2018-11-22T23:43:03.336Z,-0.52
2018-11-22T23:45:33.163Z,-0.52
2018-11-22T23:48:02.229Z,-0.47
2018-11-22T23:50:32.618Z,-0.42
2018-11-22T23:53:02.977Z,-0.42
2018-11-22T23:55:32.046Z,-0.38
2018-11-22T23:59:30.670Z,-0.45
